sensor_id;sensor_type;location;lat;lon;timestamp;pressure;altitude;pressure_sealevel;temperature;humidity
60918;BME280;46792;38.854;-9.384;2023-04-21T00:00:12;98691.38;;;17.14;100.00
60918;BME280;46792;38.854;-9.384;2023-04-21T00:02:32;98685.28;;;17.09;100.00
60918;BME280;46792;38.854;-9.384;2023-04-21T00:04:32;98679.03;;;17.08;100.00
60918;BME280;46792;38.854;-9.384;2023-04-21T00:06:33;98685.97;;;17.06;100.00
60918;BME280;46792;38.854;-9.384;2023-04-21T00:08:34;98687.28;;;16.91;100.00
60918;BME280;46792;38.854;-9.384;2023-04-21T00:10:57;98690.34;;;16.89;100.00
60918;BME280;46792;38.854;-9.384;2023-04-21T00:12:58;98690.81;;;16.91;100.00
60918;BME280;46792;38.854;-9.384;2023-04-21T00:14:59;98691.94;;;16.99;100.00
60918;BME280;46792;38.854;-9.384;2023-04-21T00:17:00;98688.69;;;17.06;100.00
60918;BME280;46792;38.854;-9.384;2023-04-21T00:19:00;98694.63;;;17.08;100.00
60918;BME280;46792;38.854;-9.384;2023-04-21T00:21:06;98688.34;;;17.07;100.00
60918;BME280;46792;38.854;-9.384;2023-04-21T00:23:06;98688.81;;;17.09;100.00
60918;BME280;46792;38.854;-9.384;2023-04-21T00:25:18;98684.50;;;17.08;100.00
60918;BME280;46792;38.854;-9.384;2023-04-21T00:27:19;98691.56;;;17.09;100.00
60918;BME280;46792;38.854;-9.384;2023-04-21T00:29:20;98679.03;;;17.08;100.00
60918;BME280;46792;38.854;-9.384;2023-04-21T00:31:21;98683.72;;;17.08;100.00
60918;BME280;46792;38.854;-9.384;2023-04-21T00:33:21;98684.63;;;17.12;100.00
60918;BME280;46792;38.854;-9.384;2023-04-21T00:35:43;98685.44;;;17.12;100.00
60918;BME280;46792;38.854;-9.384;2023-04-21T00:37:47;98679.81;;;17.09;100.00
60918;BME280;46792;38.854;-9.384;2023-04-21T00:39:49;98675.38;;;17.04;100.00
60918;BME280;46792;38.854;-9.384;2023-04-21T00:41:50;98673.59;;;17.08;100.00
60918;BME280;46792;38.854;-9.384;2023-04-21T00:44:01;98674.72;;;17.07;100.00
60918;BME280;46792;38.854;-9.384;2023-04-21T00:46:20;98668.31;;;16.94;100.00
60918;BME280;46792;38.854;-9.384;2023-04-21T00:48:20;98661.47;;;16.97;100.00
60918;BME280;46792;38.854;-9.384;2023-04-21T00:50:39;98659.06;;;16.95;100.00
60918;BME280;46792;38.854;-9.384;2023-04-21T00:52:59;98641.75;;;16.91;100.00
60918;BME280;46792;38.854;-9.384;2023-04-21T00:55:00;98648.44;;;17.02;100.00
60918;BME280;46792;38.854;-9.384;2023-04-21T00:57:01;98649.09;;;16.99;100.00
60918;BME280;46792;38.854;-9.384;2023-04-21T00:59:03;98646.50;;;16.94;100.00
60918;BME280;46792;38.854;-9.384;2023-04-21T01:01:03;98639.66;;;16.97;100.00
60918;BME280;46792;38.854;-9.384;2023-04-21T01:03:05;98638.69;;;16.93;100.00
60918;BME280;46792;38.854;-9.384;2023-04-21T01:05:07;98632.09;;;17.02;100.00
60918;BME280;46792;38.854;-9.384;2023-04-21T01:07:08;98626.44;;;17.08;100.00
60918;BME280;46792;38.854;-9.384;2023-04-21T01:09:09;98621.91;;;17.12;100.00
60918;BME280;46792;38.854;-9.384;2023-04-21T01:11:12;98619.06;;;17.08;100.00
60918;BME280;46792;38.854;-9.384;2023-04-21T01:13:13;98634.75;;;17.11;100.00
60918;BME280;46792;38.854;-9.384;2023-04-21T01:15:17;98624.50;;;17.08;100.00
60918;BME280;46792;38.854;-9.384;2023-04-21T01:17:18;98620.69;;;17.00;100.00
60918;BME280;46792;38.854;-9.384;2023-04-21T01:19:21;98613.00;;;16.94;100.00
60918;BME280;46792;38.854;-9.384;2023-04-21T01:21:22;98608.09;;;16.87;100.00
60918;BME280;46792;38.854;-9.384;2023-04-21T01:23:23;98608.25;;;16.82;100.00
60918;BME280;46792;38.854;-9.384;2023-04-21T01:25:42;98608.16;;;16.69;100.00
60918;BME280;46792;38.854;-9.384;2023-04-21T01:27:42;98607.88;;;16.62;100.00
60918;BME280;46792;38.854;-9.384;2023-04-21T01:29:48;98609.69;;;16.49;100.00
60918;BME280;46792;38.854;-9.384;2023-04-21T01:31:48;98594.50;;;16.39;100.00
60918;BME280;46792;38.854;-9.384;2023-04-21T01:33:49;98599.34;;;16.34;100.00
60918;BME280;46792;38.854;-9.384;2023-04-21T01:35:50;98590.19;;;16.38;100.00
60918;BME280;46792;38.854;-9.384;2023-04-21T01:37:53;98589.06;;;16.39;100.00
60918;BME280;46792;38.854;-9.384;2023-04-21T01:39:55;98587.47;;;16.38;100.00
60918;BME280;46792;38.854;-9.384;2023-04-21T01:41:56;98589.41;;;16.29;100.00
60918;BME280;46792;38.854;-9.384;2023-04-21T01:43:57;98586.06;;;16.23;100.00
60918;BME280;46792;38.854;-9.384;2023-04-21T01:45:58;98589.59;;;16.24;100.00
60918;BME280;46792;38.854;-9.384;2023-04-21T01:47:58;98585.28;;;16.23;100.00
60918;BME280;46792;38.854;-9.384;2023-04-21T01:49:59;98576.94;;;16.28;100.00
60918;BME280;46792;38.854;-9.384;2023-04-21T01:52:19;98579.19;;;16.26;100.00
60918;BME280;46792;38.854;-9.384;2023-04-21T01:54:20;98575.84;;;16.20;100.00
60918;BME280;46792;38.854;-9.384;2023-04-21T01:56:20;98582.06;;;16.21;100.00
60918;BME280;46792;38.854;-9.384;2023-04-21T02:01:19;98586.88;;;16.24;100.00
60918;BME280;46792;38.854;-9.384;2023-04-21T02:03:19;98583.31;;;16.32;100.00
60918;BME280;46792;38.854;-9.384;2023-04-21T02:05:39;98574.84;;;16.34;100.00
60918;BME280;46792;38.854;-9.384;2023-04-21T02:07:39;98578.50;;;16.29;100.00
60918;BME280;46792;38.854;-9.384;2023-04-21T02:09:40;98572.91;;;16.25;100.00
60918;BME280;46792;38.854;-9.384;2023-04-21T02:11:41;98570.81;;;16.31;100.00
60918;BME280;46792;38.854;-9.384;2023-04-21T02:13:42;98566.84;;;16.29;100.00
60918;BME280;46792;38.854;-9.384;2023-04-21T02:15:42;98565.56;;;16.26;100.00
60918;BME280;46792;38.854;-9.384;2023-04-21T02:17:43;98567.16;;;16.27;100.00
60918;BME280;46792;38.854;-9.384;2023-04-21T02:22:24;98562.66;;;16.31;100.00
60918;BME280;46792;38.854;-9.384;2023-04-21T02:24:25;98546.31;;;16.31;100.00
60918;BME280;46792;38.854;-9.384;2023-04-21T02:26:27;98555.44;;;16.35;100.00
60918;BME280;46792;38.854;-9.384;2023-04-21T02:28:28;98563.09;;;16.42;100.00
60918;BME280;46792;38.854;-9.384;2023-04-21T02:30:28;98557.66;;;16.42;100.00
60918;BME280;46792;38.854;-9.384;2023-04-21T02:32:30;98557.97;;;16.40;100.00
60918;BME280;46792;38.854;-9.384;2023-04-21T02:34:30;98552.84;;;16.39;100.00
60918;BME280;46792;38.854;-9.384;2023-04-21T02:36:31;98547.88;;;16.41;100.00
60918;BME280;46792;38.854;-9.384;2023-04-21T02:38:32;98549.59;;;16.46;100.00
60918;BME280;46792;38.854;-9.384;2023-04-21T02:40:32;98550.91;;;16.48;100.00
60918;BME280;46792;38.854;-9.384;2023-04-21T02:42:33;98554.44;;;16.40;100.00
60918;BME280;46792;38.854;-9.384;2023-04-21T02:44:36;98545.50;;;16.39;100.00
60918;BME280;46792;38.854;-9.384;2023-04-21T02:46:40;98553.28;;;16.50;100.00
60918;BME280;46792;38.854;-9.384;2023-04-21T02:48:41;98546.72;;;16.51;100.00
60918;BME280;46792;38.854;-9.384;2023-04-21T02:50:42;98543.00;;;16.55;100.00
60918;BME280;46792;38.854;-9.384;2023-04-21T02:52:42;98547.19;;;16.53;100.00
60918;BME280;46792;38.854;-9.384;2023-04-21T02:54:43;98542.84;;;16.52;100.00
60918;BME280;46792;38.854;-9.384;2023-04-21T02:56:44;98531.00;;;16.48;100.00
60918;BME280;46792;38.854;-9.384;2023-04-21T02:58:46;98543.38;;;16.45;100.00
60918;BME280;46792;38.854;-9.384;2023-04-21T03:00:47;98539.38;;;16.42;100.00
60918;BME280;46792;38.854;-9.384;2023-04-21T03:02:47;98541.94;;;16.39;100.00
60918;BME280;46792;38.854;-9.384;2023-04-21T03:04:52;98543.41;;;16.36;100.00
60918;BME280;46792;38.854;-9.384;2023-04-21T03:06:53;98537.78;;;16.41;100.00
60918;BME280;46792;38.854;-9.384;2023-04-21T03:08:57;98534.91;;;16.38;100.00
60918;BME280;46792;38.854;-9.384;2023-04-21T03:11:00;98537.31;;;16.39;100.00
60918;BME280;46792;38.854;-9.384;2023-04-21T03:13:01;98540.81;;;16.40;100.00
60918;BME280;46792;38.854;-9.384;2023-04-21T03:15:01;98536.66;;;16.42;100.00
60918;BME280;46792;38.854;-9.384;2023-04-21T03:17:02;98537.59;;;16.47;100.00
60918;BME280;46792;38.854;-9.384;2023-04-21T03:19:04;98538.88;;;16.49;100.00
60918;BME280;46792;38.854;-9.384;2023-04-21T03:21:05;98535.19;;;16.45;100.00
60918;BME280;46792;38.854;-9.384;2023-04-21T03:23:06;98537.53;;;16.55;100.00
60918;BME280;46792;38.854;-9.384;2023-04-21T03:25:06;98529.88;;;16.49;100.00
60918;BME280;46792;38.854;-9.384;2023-04-21T03:27:07;98528.75;;;16.50;100.00
60918;BME280;46792;38.854;-9.384;2023-04-21T03:29:08;98531.31;;;16.55;100.00
60918;BME280;46792;38.854;-9.384;2023-04-21T03:31:08;98526.03;;;16.50;100.00
60918;BME280;46792;38.854;-9.384;2023-04-21T03:33:09;98525.25;;;16.49;100.00
60918;BME280;46792;38.854;-9.384;2023-04-21T03:35:09;98522.53;;;16.49;100.00
60918;BME280;46792;38.854;-9.384;2023-04-21T03:37:10;98516.09;;;16.54;100.00
60918;BME280;46792;38.854;-9.384;2023-04-21T03:39:11;98524.25;;;16.54;100.00
60918;BME280;46792;38.854;-9.384;2023-04-21T03:41:11;98515.63;;;16.52;100.00
60918;BME280;46792;38.854;-9.384;2023-04-21T03:43:12;98514.31;;;16.58;100.00
60918;BME280;46792;38.854;-9.384;2023-04-21T03:45:13;98522.00;;;16.56;100.00
60918;BME280;46792;38.854;-9.384;2023-04-21T03:47:16;98523.91;;;16.55;100.00
60918;BME280;46792;38.854;-9.384;2023-04-21T03:49:17;98521.06;;;16.52;100.00
60918;BME280;46792;38.854;-9.384;2023-04-21T03:51:17;98514.34;;;16.49;100.00
60918;BME280;46792;38.854;-9.384;2023-04-21T03:53:18;98519.41;;;16.60;100.00
60918;BME280;46792;38.854;-9.384;2023-04-21T03:55:18;98519.75;;;16.58;100.00
60918;BME280;46792;38.854;-9.384;2023-04-21T03:57:19;98522.16;;;16.60;100.00
60918;BME280;46792;38.854;-9.384;2023-04-21T03:59:19;98530.66;;;16.58;100.00
60918;BME280;46792;38.854;-9.384;2023-04-21T04:01:20;98524.25;;;16.54;100.00
60918;BME280;46792;38.854;-9.384;2023-04-21T04:03:21;98525.38;;;16.53;100.00
60918;BME280;46792;38.854;-9.384;2023-04-21T04:05:22;98518.69;;;16.50;100.00
60918;BME280;46792;38.854;-9.384;2023-04-21T04:07:22;98513.72;;;16.52;100.00
60918;BME280;46792;38.854;-9.384;2023-04-21T04:09:23;98513.88;;;16.47;100.00
60918;BME280;46792;38.854;-9.384;2023-04-21T04:11:23;98507.50;;;16.43;100.00
60918;BME280;46792;38.854;-9.384;2023-04-21T04:13:24;98502.03;;;16.43;100.00
60918;BME280;46792;38.854;-9.384;2023-04-21T04:15:26;98513.75;;;16.44;100.00
60918;BME280;46792;38.854;-9.384;2023-04-21T04:17:26;98518.00;;;16.53;100.00
60918;BME280;46792;38.854;-9.384;2023-04-21T04:19:30;98506.78;;;16.55;100.00
60918;BME280;46792;38.854;-9.384;2023-04-21T04:21:32;98500.22;;;16.56;100.00
60918;BME280;46792;38.854;-9.384;2023-04-21T04:23:33;98513.22;;;16.50;100.00
60918;BME280;46792;38.854;-9.384;2023-04-21T04:25:34;98501.66;;;16.53;100.00
60918;BME280;46792;38.854;-9.384;2023-04-21T04:27:45;98511.28;;;16.51;100.00
60918;BME280;46792;38.854;-9.384;2023-04-21T04:29:46;98499.63;;;16.50;100.00
60918;BME280;46792;38.854;-9.384;2023-04-21T04:31:49;98497.28;;;16.61;100.00
60918;BME280;46792;38.854;-9.384;2023-04-21T04:33:50;98494.13;;;16.59;100.00
60918;BME280;46792;38.854;-9.384;2023-04-21T04:36:13;98490.25;;;16.60;100.00
60918;BME280;46792;38.854;-9.384;2023-04-21T04:38:16;98487.38;;;16.56;100.00
60918;BME280;46792;38.854;-9.384;2023-04-21T04:40:16;98484.19;;;16.54;100.00
60918;BME280;46792;38.854;-9.384;2023-04-21T04:42:18;98483.88;;;16.56;100.00
60918;BME280;46792;38.854;-9.384;2023-04-21T04:44:19;98477.75;;;16.59;100.00
60918;BME280;46792;38.854;-9.384;2023-04-21T04:46:20;98480.81;;;16.57;100.00
60918;BME280;46792;38.854;-9.384;2023-04-21T04:48:20;98481.94;;;16.56;100.00
60918;BME280;46792;38.854;-9.384;2023-04-21T04:50:21;98473.91;;;16.60;100.00
60918;BME280;46792;38.854;-9.384;2023-04-21T04:52:22;98478.38;;;16.65;100.00
60918;BME280;46792;38.854;-9.384;2023-04-21T04:54:22;98469.53;;;16.68;100.00
60918;BME280;46792;38.854;-9.384;2023-04-21T04:56:24;98470.19;;;16.65;100.00
60918;BME280;46792;38.854;-9.384;2023-04-21T04:58:25;98463.47;;;16.62;100.00
60918;BME280;46792;38.854;-9.384;2023-04-21T05:00:25;98463.75;;;16.69;100.00
60918;BME280;46792;38.854;-9.384;2023-04-21T05:02:28;98457.69;;;16.64;100.00
60918;BME280;46792;38.854;-9.384;2023-04-21T05:04:28;98463.00;;;16.60;100.00
60918;BME280;46792;38.854;-9.384;2023-04-21T05:06:29;98459.88;;;16.70;100.00
60918;BME280;46792;38.854;-9.384;2023-04-21T05:08:29;98458.47;;;16.64;100.00
60918;BME280;46792;38.854;-9.384;2023-04-21T05:10:30;98463.00;;;16.60;100.00
60918;BME280;46792;38.854;-9.384;2023-04-21T05:12:31;98461.53;;;16.63;100.00
60918;BME280;46792;38.854;-9.384;2023-04-21T05:14:32;98465.22;;;16.67;100.00
60918;BME280;46792;38.854;-9.384;2023-04-21T05:16:32;98466.94;;;16.71;100.00
60918;BME280;46792;38.854;-9.384;2023-04-21T05:18:33;98467.72;;;16.72;100.00
60918;BME280;46792;38.854;-9.384;2023-04-21T05:20:34;98465.00;;;16.72;100.00
60918;BME280;46792;38.854;-9.384;2023-04-21T05:22:38;98463.16;;;16.64;100.00
60918;BME280;46792;38.854;-9.384;2023-04-21T05:24:42;98470.59;;;16.76;100.00
60918;BME280;46792;38.854;-9.384;2023-04-21T05:26:43;98466.47;;;16.69;100.00
60918;BME280;46792;38.854;-9.384;2023-04-21T05:28:43;98465.78;;;16.51;100.00
60918;BME280;46792;38.854;-9.384;2023-04-21T05:30:44;98463.28;;;16.67;100.00
60918;BME280;46792;38.854;-9.384;2023-04-21T05:32:45;98470.66;;;16.67;100.00
60918;BME280;46792;38.854;-9.384;2023-04-21T05:34:45;98471.97;;;16.82;100.00
60918;BME280;46792;38.854;-9.384;2023-04-21T05:36:46;98467.94;;;16.88;100.00
60918;BME280;46792;38.854;-9.384;2023-04-21T05:38:48;98461.44;;;16.80;100.00
60918;BME280;46792;38.854;-9.384;2023-04-21T05:41:07;98467.28;;;16.91;100.00
60918;BME280;46792;38.854;-9.384;2023-04-21T05:43:08;98473.47;;;17.00;100.00
60918;BME280;46792;38.854;-9.384;2023-04-21T05:45:27;98476.09;;;16.97;100.00
60918;BME280;46792;38.854;-9.384;2023-04-21T05:47:46;98474.19;;;17.10;100.00
60918;BME280;46792;38.854;-9.384;2023-04-21T05:49:50;98477.97;;;17.17;100.00
60918;BME280;46792;38.854;-9.384;2023-04-21T05:51:51;98479.66;;;17.10;100.00
60918;BME280;46792;38.854;-9.384;2023-04-21T05:53:52;98473.06;;;17.11;100.00
60918;BME280;46792;38.854;-9.384;2023-04-21T05:55:52;98468.66;;;17.18;100.00
60918;BME280;46792;38.854;-9.384;2023-04-21T05:57:53;98474.47;;;17.17;99.77
60918;BME280;46792;38.854;-9.384;2023-04-21T05:59:53;98475.59;;;17.16;99.82
60918;BME280;46792;38.854;-9.384;2023-04-21T06:01:54;98465.88;;;17.06;100.00
60918;BME280;46792;38.854;-9.384;2023-04-21T06:03:55;98470.34;;;17.11;100.00
60918;BME280;46792;38.854;-9.384;2023-04-21T06:05:55;98474.72;;;17.03;100.00
60918;BME280;46792;38.854;-9.384;2023-04-21T06:08:15;98473.28;;;17.06;99.75
60918;BME280;46792;38.854;-9.384;2023-04-21T06:10:34;98478.97;;;17.13;100.00
60918;BME280;46792;38.854;-9.384;2023-04-21T06:12:34;98480.94;;;17.12;99.30
60918;BME280;46792;38.854;-9.384;2023-04-21T06:14:35;98478.88;;;17.09;99.73
60918;BME280;46792;38.854;-9.384;2023-04-21T06:16:54;98476.13;;;17.09;99.80
60918;BME280;46792;38.854;-9.384;2023-04-21T06:18:54;98480.03;;;17.21;99.95
60918;BME280;46792;38.854;-9.384;2023-04-21T06:20:58;98477.53;;;17.15;98.77
60918;BME280;46792;38.854;-9.384;2023-04-21T06:22:58;98479.84;;;17.26;99.27
60918;BME280;46792;38.854;-9.384;2023-04-21T06:24:59;98479.50;;;17.27;99.64
60918;BME280;46792;38.854;-9.384;2023-04-21T06:26:59;98478.38;;;17.28;99.22
60918;BME280;46792;38.854;-9.384;2023-04-21T06:29:01;98477.47;;;17.24;99.26
60918;BME280;46792;38.854;-9.384;2023-04-21T06:31:20;98476.00;;;17.27;99.48
60918;BME280;46792;38.854;-9.384;2023-04-21T06:35:40;98477.13;;;17.26;98.56
60918;BME280;46792;38.854;-9.384;2023-04-21T06:37:40;98462.38;;;17.39;97.56
60918;BME280;46792;38.854;-9.384;2023-04-21T06:39:41;98472.28;;;17.44;97.96
60918;BME280;46792;38.854;-9.384;2023-04-21T06:41:42;98470.94;;;17.50;98.41
60918;BME280;46792;38.854;-9.384;2023-04-21T06:44:00;98462.66;;;17.46;98.69
60918;BME280;46792;38.854;-9.384;2023-04-21T06:46:01;98459.78;;;17.43;98.70
60918;BME280;46792;38.854;-9.384;2023-04-21T06:48:02;98463.13;;;17.48;99.23
60918;BME280;46792;38.854;-9.384;2023-04-21T06:50:21;98461.44;;;17.56;99.40
60918;BME280;46792;38.854;-9.384;2023-04-21T06:52:40;98461.53;;;17.60;98.78
60918;BME280;46792;38.854;-9.384;2023-04-21T06:54:41;98457.13;;;17.68;98.30
60918;BME280;46792;38.854;-9.384;2023-04-21T06:56:41;98461.53;;;17.60;98.72
60918;BME280;46792;38.854;-9.384;2023-04-21T06:59:00;98459.22;;;17.49;98.74
60918;BME280;46792;38.854;-9.384;2023-04-21T07:01:01;98456.41;;;17.58;99.24
60918;BME280;46792;38.854;-9.384;2023-04-21T07:03:01;98446.66;;;17.70;98.91
60918;BME280;46792;38.854;-9.384;2023-04-21T07:05:02;98440.50;;;17.73;98.26
60918;BME280;46792;38.854;-9.384;2023-04-21T07:07:03;98454.41;;;17.68;99.38
60918;BME280;46792;38.854;-9.384;2023-04-21T07:09:03;98452.03;;;17.78;98.82
60918;BME280;46792;38.854;-9.384;2023-04-21T07:11:05;98452.81;;;17.79;99.45
60918;BME280;46792;38.854;-9.384;2023-04-21T07:13:05;98452.81;;;17.79;99.64
60918;BME280;46792;38.854;-9.384;2023-04-21T07:15:07;98449.97;;;17.75;100.00
60918;BME280;46792;38.854;-9.384;2023-04-21T07:17:08;98450.44;;;17.90;99.97
60918;BME280;46792;38.854;-9.384;2023-04-21T07:19:09;98446.50;;;18.00;99.05
60918;BME280;46792;38.854;-9.384;2023-04-21T07:21:09;98441.69;;;17.97;100.00
60918;BME280;46792;38.854;-9.384;2023-04-21T07:23:10;98439.56;;;18.02;99.54
60918;BME280;46792;38.854;-9.384;2023-04-21T07:25:11;98438.50;;;17.94;99.48
60918;BME280;46792;38.854;-9.384;2023-04-21T07:27:11;98431.25;;;17.99;99.50
60918;BME280;46792;38.854;-9.384;2023-04-21T07:29:12;98442.38;;;18.06;99.13
60918;BME280;46792;38.854;-9.384;2023-04-21T07:31:13;98449.88;;;17.97;99.83
60918;BME280;46792;38.854;-9.384;2023-04-21T07:33:13;98443.78;;;18.12;99.28
60918;BME280;46792;38.854;-9.384;2023-04-21T07:35:14;98452.41;;;18.14;98.71
60918;BME280;46792;38.854;-9.384;2023-04-21T07:37:15;98452.06;;;18.03;99.63
60918;BME280;46792;38.854;-9.384;2023-04-21T07:39:15;98441.72;;;18.09;99.63
60918;BME280;46792;38.854;-9.384;2023-04-21T07:41:16;98440.00;;;18.04;99.33
60918;BME280;46792;38.854;-9.384;2023-04-21T07:43:17;98445.34;;;18.26;99.47
60918;BME280;46792;38.854;-9.384;2023-04-21T07:45:19;98438.09;;;18.17;99.03
60918;BME280;46792;38.854;-9.384;2023-04-21T07:47:19;98446.75;;;18.19;99.30
60918;BME280;46792;38.854;-9.384;2023-04-21T07:49:20;98444.22;;;18.27;99.00
60918;BME280;46792;38.854;-9.384;2023-04-21T07:51:21;98443.09;;;18.03;100.00
60918;BME280;46792;38.854;-9.384;2023-04-21T07:53:21;98442.28;;;18.15;100.00
60918;BME280;46792;38.854;-9.384;2023-04-21T07:55:22;98435.56;;;18.12;100.00
60918;BME280;46792;38.854;-9.384;2023-04-21T07:57:22;98436.94;;;18.06;100.00
60918;BME280;46792;38.854;-9.384;2023-04-21T07:59:23;98444.44;;;18.09;100.00
60918;BME280;46792;38.854;-9.384;2023-04-21T08:01:24;98436.25;;;18.09;100.00
60918;BME280;46792;38.854;-9.384;2023-04-21T08:03:25;98447.19;;;18.09;100.00
60918;BME280;46792;38.854;-9.384;2023-04-21T08:05:25;98425.22;;;18.05;100.00
60918;BME280;46792;38.854;-9.384;2023-04-21T08:07:44;98433.19;;;18.11;100.00
60918;BME280;46792;38.854;-9.384;2023-04-21T08:09:46;98443.66;;;18.08;100.00
60918;BME280;46792;38.854;-9.384;2023-04-21T08:11:47;98446.50;;;18.12;100.00
60918;BME280;46792;38.854;-9.384;2023-04-21T08:13:48;98446.94;;;18.27;100.00
60918;BME280;46792;38.854;-9.384;2023-04-21T08:15:53;98452.88;;;18.29;100.00
60918;BME280;46792;38.854;-9.384;2023-04-21T08:17:53;98450.81;;;18.38;100.00
60918;BME280;46792;38.854;-9.384;2023-04-21T08:19:54;98450.03;;;18.37;100.00
60918;BME280;46792;38.854;-9.384;2023-04-21T08:21:55;98446.03;;;18.35;100.00
60918;BME280;46792;38.854;-9.384;2023-04-21T08:23:56;98450.81;;;18.38;100.00
60918;BME280;46792;38.854;-9.384;2023-04-21T08:25:56;98439.56;;;18.39;100.00
60918;BME280;46792;38.854;-9.384;2023-04-21T08:28:00;98450.81;;;18.26;100.00
60918;BME280;46792;38.854;-9.384;2023-04-21T08:30:00;98436.47;;;18.41;100.00
60918;BME280;46792;38.854;-9.384;2023-04-21T08:32:01;98427.69;;;18.60;100.00
60918;BME280;46792;38.854;-9.384;2023-04-21T08:34:02;98428.13;;;18.50;100.00
60918;BME280;46792;38.854;-9.384;2023-04-21T08:36:03;98439.44;;;18.36;100.00
60918;BME280;46792;38.854;-9.384;2023-04-21T08:38:05;98435.09;;;18.47;100.00
60918;BME280;46792;38.854;-9.384;2023-04-21T08:40:06;98440.75;;;18.67;100.00
60918;BME280;46792;38.854;-9.384;2023-04-21T08:42:07;98440.31;;;18.65;100.00
60918;BME280;46792;38.854;-9.384;2023-04-21T08:44:26;98442.34;;;18.55;100.00
60918;BME280;46792;38.854;-9.384;2023-04-21T08:46:26;98440.41;;;18.68;100.00
60918;BME280;46792;38.854;-9.384;2023-04-21T08:48:46;98445.06;;;18.80;100.00
60918;BME280;46792;38.854;-9.384;2023-04-21T08:50:50;98443.94;;;18.69;100.00
60918;BME280;46792;38.854;-9.384;2023-04-21T08:52:53;98446.97;;;18.80;100.00
60918;BME280;46792;38.854;-9.384;2023-04-21T08:54:54;98443.38;;;18.63;100.00
60918;BME280;46792;38.854;-9.384;2023-04-21T08:56:56;98445.84;;;18.81;100.00
60918;BME280;46792;38.854;-9.384;2023-04-21T08:58:57;98449.16;;;18.74;100.00
60918;BME280;46792;38.854;-9.384;2023-04-21T09:00:58;98454.44;;;18.67;100.00
60918;BME280;46792;38.854;-9.384;2023-04-21T09:02:59;98453.84;;;18.74;100.00
60918;BME280;46792;38.854;-9.384;2023-04-21T09:05:00;98458.47;;;18.85;100.00
60918;BME280;46792;38.854;-9.384;2023-04-21T09:07:01;98453.69;;;18.95;100.00
60918;BME280;46792;38.854;-9.384;2023-04-21T09:09:02;98463.69;;;18.91;100.00
60918;BME280;46792;38.854;-9.384;2023-04-21T09:11:05;98454.59;;;18.87;100.00
60918;BME280;46792;38.854;-9.384;2023-04-21T09:13:06;98461.78;;;18.79;100.00
60918;BME280;46792;38.854;-9.384;2023-04-21T09:15:10;98459.41;;;18.77;99.86
60918;BME280;46792;38.854;-9.384;2023-04-21T09:17:14;98465.41;;;18.95;99.72
60918;BME280;46792;38.854;-9.384;2023-04-21T09:19:15;98467.81;;;18.97;100.00
60918;BME280;46792;38.854;-9.384;2023-04-21T09:21:26;98474.44;;;18.83;100.00
60918;BME280;46792;38.854;-9.384;2023-04-21T09:23:29;98463.94;;;18.85;99.51
60918;BME280;46792;38.854;-9.384;2023-04-21T09:25:43;98472.72;;;18.79;99.63
60918;BME280;46792;38.854;-9.384;2023-04-21T09:27:45;98478.88;;;18.88;99.39
60918;BME280;46792;38.854;-9.384;2023-04-21T09:29:46;98479.66;;;18.89;99.34
60918;BME280;46792;38.854;-9.384;2023-04-21T09:31:48;98470.88;;;18.95;99.08
60918;BME280;46792;38.854;-9.384;2023-04-21T09:33:52;98470.66;;;18.88;99.59
60918;BME280;46792;38.854;-9.384;2023-04-21T09:35:53;98479.56;;;18.85;99.55
60918;BME280;46792;38.854;-9.384;2023-04-21T09:37:53;98459.19;;;18.82;100.00
60918;BME280;46792;38.854;-9.384;2023-04-21T09:39:54;98477.84;;;18.80;100.00
60918;BME280;46792;38.854;-9.384;2023-04-21T09:41:58;98499.47;;;18.85;100.00
60918;BME280;46792;38.854;-9.384;2023-04-21T09:44:01;98500.38;;;18.90;100.00
60918;BME280;46792;38.854;-9.384;2023-04-21T09:46:03;98497.53;;;18.98;99.42
60918;BME280;46792;38.854;-9.384;2023-04-21T09:48:07;98494.22;;;19.05;99.72
60918;BME280;46792;38.854;-9.384;2023-04-21T09:50:11;98498.41;;;19.15;99.35
60918;BME280;46792;38.854;-9.384;2023-04-21T09:52:12;98490.00;;;19.08;100.00
60918;BME280;46792;38.854;-9.384;2023-04-21T09:54:18;98490.69;;;19.05;100.00
60918;BME280;46792;38.854;-9.384;2023-04-21T09:56:20;98483.03;;;19.10;100.00
60918;BME280;46792;38.854;-9.384;2023-04-21T09:58:26;98488.50;;;19.10;100.00
60918;BME280;46792;38.854;-9.384;2023-04-21T10:00:28;98489.59;;;19.22;100.00
60918;BME280;46792;38.854;-9.384;2023-04-21T10:02:30;98482.16;;;19.35;100.00
60918;BME280;46792;38.854;-9.384;2023-04-21T10:04:32;98482.16;;;19.35;100.00
60918;BME280;46792;38.854;-9.384;2023-04-21T10:06:33;98487.41;;;19.27;100.00
60918;BME280;46792;38.854;-9.384;2023-04-21T10:08:36;98473.03;;;19.30;100.00
60918;BME280;46792;38.854;-9.384;2023-04-21T10:10:37;98488.63;;;19.42;100.00
60918;BME280;46792;38.854;-9.384;2023-04-21T10:12:38;98488.78;;;19.50;99.59
60918;BME280;46792;38.854;-9.384;2023-04-21T10:14:57;98476.00;;;19.54;98.47
60918;BME280;46792;38.854;-9.384;2023-04-21T10:17:08;98481.41;;;19.66;98.11
60918;BME280;46792;38.854;-9.384;2023-04-21T10:19:26;98478.94;;;19.61;97.35
60918;BME280;46792;38.854;-9.384;2023-04-21T10:21:27;98490.97;;;19.72;96.98
60918;BME280;46792;38.854;-9.384;2023-04-21T10:23:45;98492.94;;;19.72;98.14
60918;BME280;46792;38.854;-9.384;2023-04-21T10:25:47;98489.22;;;19.64;98.69
60918;BME280;46792;38.854;-9.384;2023-04-21T10:27:48;98485.75;;;19.67;97.45
60918;BME280;46792;38.854;-9.384;2023-04-21T10:29:50;98472.38;;;19.50;98.40
60918;BME280;46792;38.854;-9.384;2023-04-21T10:31:53;98472.28;;;19.46;99.15
60918;BME280;46792;38.854;-9.384;2023-04-21T10:36:10;98468.22;;;19.11;99.85
60918;BME280;46792;38.854;-9.384;2023-04-21T10:38:43;98481.53;;;19.13;99.95
60918;BME280;46792;38.854;-9.384;2023-04-21T10:41:24;98475.19;;;19.09;100.00
60918;BME280;46792;38.854;-9.384;2023-04-21T10:43:44;98461.25;;;19.14;99.33
60918;BME280;46792;38.854;-9.384;2023-04-21T10:45:44;98463.44;;;19.08;99.05
60918;BME280;46792;38.854;-9.384;2023-04-21T10:47:47;98463.75;;;19.19;99.16